createdAt,value
2018-03-22T09:27:24.567Z,86.32
2018-03-22T09:32:25.537Z,85.97
2018-03-22T09:37:26.830Z,85.47
2018-03-22T09:42:27.778Z,86.31
2018-03-22T09:47:29.517Z,85.65
2018-03-22T09:52:30.867Z,85.35
2018-03-22T09:57:32.273Z,86.11
2018-03-22T10:02:33.168Z,85.56
2018-03-22T10:07:34.109Z,86.52
2018-03-22T10:12:35.385Z,84.95
2018-03-22T10:17:36.727Z,86.31
2018-03-22T10:22:37.981Z,86.59
2018-03-22T10:27:38.936Z,85.18
2018-03-22T10:32:40.310Z,83.51
2018-03-22T10:37:41.290Z,84.86
2018-03-22T10:42:42.225Z,84.86
2018-03-22T10:47:43.192Z,84.65
2018-03-22T10:52:44.149Z,85.54
2018-03-22T10:57:45.100Z,84.70
2018-03-22T11:02:52.997Z,84.54
2018-03-22T11:07:53.957Z,84.25
2018-03-22T11:12:54.910Z,84.51
2018-03-22T11:17:55.857Z,84.96
2018-03-22T11:22:56.919Z,84.35
2018-03-22T11:27:57.844Z,85.04
2018-03-22T11:32:58.831Z,84.72
2018-03-22T11:37:59.770Z,82.75
2018-03-22T11:43:00.721Z,82.01
2018-03-22T11:48:01.677Z,83.06
2018-03-22T11:53:03.632Z,82.14
2018-03-22T11:58:04.869Z,82.38
2018-03-22T12:03:06.122Z,82.40
2018-03-22T12:08:07.059Z,83.14
2018-03-22T12:13:07.997Z,81.90
2018-03-22T12:18:08.921Z,81.92
2018-03-22T12:23:09.845Z,81.56
2018-03-22T12:28:11.706Z,82.26
2018-03-22T12:33:12.680Z,82.25
2018-03-22T12:38:13.636Z,82.03
2018-03-22T12:43:14.802Z,81.95
2018-03-22T12:48:16.724Z,82.46
2018-03-22T12:53:17.677Z,82.36
2018-03-22T12:58:18.624Z,82.97
2018-03-22T13:03:19.567Z,82.43
2018-03-22T13:08:20.792Z,82.63
2018-03-22T13:13:22.163Z,81.11
2018-03-22T13:18:25.155Z,80.56
2018-03-22T13:23:26.122Z,80.09
2018-03-22T13:28:27.398Z,78.93
2018-03-22T13:33:29.274Z,78.73
2018-03-22T13:38:30.221Z,80.21
2018-03-22T13:43:31.149Z,78.81
2018-03-22T13:48:32.101Z,78.74
2018-03-22T13:53:33.073Z,78.18
2018-03-22T13:58:34.816Z,79.09
2018-03-22T14:03:35.782Z,79.19
2018-03-22T14:08:36.766Z,79.33
2018-03-22T14:13:37.706Z,79.72
2018-03-22T14:18:38.686Z,78.84
2018-03-22T14:23:39.624Z,79.28
2018-03-22T14:28:40.576Z,78.29
2018-03-22T14:33:41.582Z,79.69
2018-03-22T14:38:42.574Z,77.96
2018-03-22T14:43:43.526Z,77.42
2018-03-22T14:48:44.963Z,78.36
2018-03-22T14:53:46.228Z,77.66
2018-03-22T14:58:47.197Z,78.44
2018-03-22T15:03:48.535Z,77.97
2018-03-22T15:08:49.798Z,78.20
2018-03-22T15:13:51.022Z,78.24
2018-03-22T15:18:52.332Z,77.40
2018-03-22T15:23:53.276Z,77.58
2018-03-22T15:28:54.230Z,77.16
2018-03-22T15:33:55.217Z,77.40
2018-03-22T15:38:56.231Z,76.63
2018-03-22T15:43:57.180Z,75.13
2018-03-22T15:48:58.150Z,74.90
2018-03-22T15:53:59.105Z,75.71
2018-03-22T15:59:00.380Z,76.64
2018-03-22T16:04:01.639Z,75.08
2018-03-22T16:09:02.654Z,73.89
2018-03-22T16:14:03.911Z,74.28
2018-03-22T16:19:04.822Z,74.29
2018-03-22T16:24:05.791Z,74.61
2018-03-22T16:29:06.768Z,73.95
2018-03-22T16:34:07.809Z,73.29
2018-03-22T16:39:08.800Z,73.53
2018-03-22T16:44:09.759Z,74.46
2018-03-22T16:49:10.783Z,74.36
2018-03-22T16:54:11.728Z,73.75
2018-03-22T16:59:12.701Z,73.82
2018-03-22T17:04:13.694Z,73.59
2018-03-22T17:09:14.722Z,72.49
2018-03-22T17:14:15.703Z,72.58
2018-03-22T17:19:16.659Z,73.73
2018-03-22T17:24:17.592Z,75.08
2018-03-22T17:29:18.574Z,74.16
2018-03-22T17:34:19.586Z,73.41
2018-03-22T17:39:20.588Z,73.94
2018-03-22T17:44:21.553Z,73.69
2018-03-22T17:49:22.550Z,73.85
2018-03-22T17:54:23.612Z,74.52
2018-03-22T17:59:24.621Z,74.86
2018-03-22T18:04:25.598Z,74.32
2018-03-22T18:09:26.581Z,74.16
2018-03-22T18:14:27.533Z,74.30
2018-03-22T18:19:28.573Z,74.16
2018-03-22T18:24:29.859Z,74.67
2018-03-22T18:29:30.817Z,74.22
2018-03-22T18:34:31.830Z,74.96
2018-03-22T18:39:32.809Z,76.59
2018-03-22T18:44:33.785Z,79.18
2018-03-22T18:49:34.756Z,77.99
2018-03-22T18:54:35.746Z,77.17
2018-03-22T18:59:36.755Z,76.47
2018-03-22T19:04:38.104Z,75.86
2018-03-22T19:09:39.108Z,76.39
2018-03-22T19:14:40.094Z,76.31
2018-03-22T19:19:41.084Z,76.00
2018-03-22T19:24:42.067Z,76.94
2018-03-22T19:29:43.068Z,76.71
2018-03-22T19:34:44.091Z,77.45
2018-03-22T19:39:45.297Z,77.51
2018-03-22T19:44:46.280Z,78.27
2018-03-22T19:49:47.277Z,77.81
2018-03-22T19:54:48.234Z,77.69
2018-03-22T19:59:49.184Z,77.45
2018-03-22T20:04:50.169Z,79.34
2018-03-22T20:09:51.158Z,79.61
2018-03-22T20:14:52.135Z,79.15
2018-03-22T20:19:53.092Z,77.58
2018-03-22T20:24:54.061Z,79.71
2018-03-22T20:29:55.054Z,77.88
2018-03-22T20:34:56.090Z,78.82
2018-03-22T20:39:57.043Z,79.17
2018-03-22T20:44:58.006Z,77.61
2018-03-22T20:49:58.982Z,77.32
2018-03-22T20:54:59.966Z,76.90
2018-03-22T21:00:00.906Z,79.87
2018-03-22T21:05:01.891Z,77.20
2018-03-22T21:10:02.918Z,77.94
2018-03-22T21:15:03.872Z,76.65
2018-03-22T21:20:04.870Z,78.38
2018-03-22T21:25:05.845Z,78.29
2018-03-22T21:30:06.822Z,78.11
2018-03-22T21:35:07.821Z,78.58
2018-03-22T21:40:08.801Z,78.43
2018-03-22T21:45:09.734Z,78.35
2018-03-22T21:50:10.719Z,77.08
2018-03-22T21:55:11.682Z,76.88
2018-03-22T22:00:12.656Z,77.03
2018-03-22T22:05:13.624Z,76.55
2018-03-22T22:10:14.614Z,77.15
2018-03-22T22:15:15.557Z,76.46
2018-03-22T22:20:16.492Z,75.91
2018-03-22T22:25:17.452Z,76.34
2018-03-22T22:30:18.434Z,75.97
2018-03-22T22:35:19.432Z,75.58
2018-03-22T22:40:20.382Z,75.94
2018-03-22T22:45:21.325Z,76.79
2018-03-22T22:50:22.264Z,76.09
2018-03-22T22:55:23.213Z,76.67
2018-03-22T23:00:24.162Z,75.78
2018-03-22T23:05:25.107Z,78.74
2018-03-22T23:10:26.057Z,76.66
2018-03-22T23:15:26.983Z,78.96
2018-03-22T23:20:27.923Z,77.28
2018-03-22T23:25:28.851Z,77.31
2018-03-22T23:30:29.770Z,77.34
2018-03-22T23:35:30.768Z,77.72
2018-03-22T23:40:31.695Z,75.66
2018-03-22T23:45:32.647Z,78.62
2018-03-22T23:50:33.592Z,75.60
2018-03-22T23:55:34.517Z,77.35
